createdAt,value
2017-08-18T00:00:25.546Z,0
2017-08-18T00:01:27.222Z,0
2017-08-18T00:02:28.937Z,0
2017-08-18T00:03:30.605Z,0
2017-08-18T00:04:33.362Z,0
2017-08-18T00:05:35.047Z,0
2017-08-18T00:06:36.793Z,0
2017-08-18T00:07:38.465Z,0
2017-08-18T00:08:40.243Z,0
2017-08-18T00:09:41.931Z,0
2017-08-18T00:10:43.648Z,0
2017-08-18T00:11:45.305Z,0
2017-08-18T00:12:47.097Z,0
2017-08-18T00:13:48.770Z,0
2017-08-18T00:14:50.520Z,0
2017-08-18T00:15:52.180Z,0
2017-08-18T00:16:53.899Z,0
2017-08-18T00:17:55.590Z,0
2017-08-18T00:18:57.306Z,0
2017-08-18T00:19:58.958Z,0
2017-08-18T00:21:00.698Z,0
2017-08-18T00:22:02.363Z,0
2017-08-18T00:23:04.082Z,0
2017-08-18T00:24:05.727Z,0
2017-08-18T00:25:08.541Z,0
2017-08-18T00:26:10.193Z,0
2017-08-18T00:27:11.903Z,0
2017-08-18T00:28:13.577Z,0
2017-08-18T00:29:15.280Z,0
2017-08-18T00:30:16.971Z,0
2017-08-18T00:31:18.688Z,0
2017-08-18T00:32:20.333Z,0
2017-08-18T00:33:22.070Z,0
2017-08-18T00:34:23.791Z,0
2017-08-18T00:35:25.558Z,0
2017-08-18T00:36:27.215Z,0
2017-08-18T00:37:28.952Z,0
2017-08-18T00:38:30.599Z,0
2017-08-18T00:39:32.358Z,0
2017-08-18T00:40:34.017Z,0
2017-08-18T00:41:35.752Z,0
2017-08-18T00:42:37.372Z,0
2017-08-18T00:43:39.150Z,0
2017-08-18T00:44:40.805Z,0
2017-08-18T00:45:42.545Z,0
2017-08-18T00:46:44.246Z,0
2017-08-18T00:47:46.022Z,0
2017-08-18T00:48:47.678Z,0
2017-08-18T00:49:49.415Z,0
2017-08-18T00:50:51.067Z,0
2017-08-18T00:51:52.807Z,0
2017-08-18T00:52:54.463Z,0
2017-08-18T00:53:56.209Z,0
2017-08-18T00:54:57.910Z,0
2017-08-18T00:55:59.702Z,0
2017-08-18T00:57:01.362Z,0
2017-08-18T00:58:03.092Z,0
2017-08-18T00:59:04.764Z,0
2017-08-18T01:00:06.508Z,0
2017-08-18T01:01:08.146Z,0
2017-08-18T01:02:09.896Z,0
2017-08-18T01:03:11.556Z,0
2017-08-18T01:04:13.270Z,0
2017-08-18T01:05:14.930Z,0
2017-08-18T01:06:16.658Z,0
2017-08-18T01:07:18.323Z,0
2017-08-18T01:08:20.083Z,0
2017-08-18T01:09:21.776Z,0
2017-08-18T01:10:24.464Z,0
2017-08-18T01:11:26.120Z,0
2017-08-18T01:12:27.856Z,0
2017-08-18T01:13:30.240Z,0
2017-08-18T01:14:31.979Z,0
2017-08-18T01:15:33.635Z,0
2017-08-18T01:16:35.365Z,0
2017-08-18T01:17:37.056Z,0
2017-08-18T01:18:38.770Z,0
2017-08-18T01:19:40.421Z,0
2017-08-18T01:20:42.173Z,0
2017-08-18T01:21:43.826Z,0
2017-08-18T01:22:45.542Z,0
2017-08-18T01:23:47.191Z,0
2017-08-18T01:24:48.937Z,0
2017-08-18T01:25:50.642Z,0
2017-08-18T01:26:52.467Z,0
2017-08-18T01:27:54.136Z,0
2017-08-18T01:28:55.925Z,0
2017-08-18T01:29:57.609Z,0
2017-08-18T01:30:59.330Z,0
2017-08-18T01:32:01.018Z,0
2017-08-18T01:33:03.247Z,0
2017-08-18T01:34:04.905Z,0
2017-08-18T01:35:06.736Z,0
2017-08-18T01:36:08.396Z,0
2017-08-18T01:37:10.152Z,0
2017-08-18T01:38:12.777Z,0
2017-08-18T01:39:14.530Z,0
2017-08-18T01:40:16.184Z,0
2017-08-18T01:41:17.938Z,0
2017-08-18T01:42:19.585Z,0
2017-08-18T01:43:21.321Z,0
2017-08-18T01:44:23.013Z,0
2017-08-18T01:45:24.824Z,0
2017-08-18T01:46:26.483Z,0
2017-08-18T01:47:28.205Z,0
2017-08-18T01:48:29.857Z,0
2017-08-18T01:49:31.596Z,0
2017-08-18T01:50:33.295Z,0
2017-08-18T01:51:35.112Z,0
2017-08-18T01:52:36.744Z,0
2017-08-18T01:53:38.484Z,0
2017-08-18T01:54:40.186Z,0
2017-08-18T01:55:41.976Z,0
2017-08-18T01:56:43.631Z,0
2017-08-18T01:57:45.405Z,0
2017-08-18T01:58:47.060Z,0
2017-08-18T01:59:48.871Z,0
2017-08-18T02:00:50.513Z,0
2017-08-18T02:01:52.261Z,0
2017-08-18T02:02:53.948Z,0
2017-08-18T02:03:55.791Z,0
2017-08-18T02:04:57.453Z,0
2017-08-18T02:05:59.270Z,0
2017-08-18T02:07:00.890Z,0
2017-08-18T02:08:03.665Z,0
2017-08-18T02:09:05.315Z,0
2017-08-18T02:10:07.060Z,0
2017-08-18T02:11:08.739Z,0
2017-08-18T02:12:10.559Z,0
2017-08-18T02:13:12.228Z,0
2017-08-18T02:14:14.970Z,0
2017-08-18T02:15:16.630Z,0
2017-08-18T02:16:18.382Z,0
2017-08-18T02:17:20.044Z,0
2017-08-18T02:18:21.857Z,0
2017-08-18T02:19:23.507Z,0
2017-08-18T02:20:25.262Z,0
2017-08-18T02:21:26.907Z,0
2017-08-18T02:22:28.661Z,0
2017-08-18T02:23:30.314Z,0
2017-08-18T02:24:32.132Z,0
2017-08-18T02:25:33.792Z,0
2017-08-18T02:26:35.526Z,0
2017-08-18T02:27:37.181Z,0
2017-08-18T02:28:38.943Z,0
2017-08-18T02:29:40.616Z,0
2017-08-18T02:30:42.445Z,0
2017-08-18T02:31:44.128Z,0
2017-08-18T02:32:45.975Z,0
2017-08-18T02:33:47.625Z,0
2017-08-18T02:34:49.415Z,0
2017-08-18T02:35:51.060Z,0
2017-08-18T02:36:52.914Z,0
2017-08-18T02:37:54.555Z,0
2017-08-18T02:38:56.328Z,0
2017-08-18T02:39:57.992Z,0
2017-08-18T02:40:59.828Z,0
2017-08-18T02:42:01.501Z,0
2017-08-18T02:43:04.315Z,0
2017-08-18T02:44:05.932Z,0
2017-08-18T02:45:07.711Z,0
2017-08-18T02:46:09.374Z,0
2017-08-18T02:47:11.207Z,0
2017-08-18T02:48:12.874Z,0
2017-08-18T02:49:14.702Z,0
2017-08-18T02:50:16.367Z,0
2017-08-18T02:51:18.194Z,0
2017-08-18T02:52:19.881Z,0
2017-08-18T02:53:21.692Z,0
2017-08-18T02:54:23.351Z,0
2017-08-18T02:55:25.185Z,0
2017-08-18T02:56:26.840Z,0
2017-08-18T02:57:28.691Z,0
2017-08-18T02:58:30.332Z,0
2017-08-18T02:59:32.170Z,0
2017-08-18T03:00:33.836Z,0
2017-08-18T03:01:35.771Z,0
2017-08-18T03:02:37.457Z,0
2017-08-18T03:03:39.277Z,0
2017-08-18T03:04:41.000Z,0
2017-08-18T03:05:42.796Z,0
2017-08-18T03:06:44.450Z,0
2017-08-18T03:07:46.255Z,0
2017-08-18T03:08:47.928Z,0
2017-08-18T03:09:49.789Z,0
2017-08-18T03:10:51.460Z,0
2017-08-18T03:11:53.264Z,0
2017-08-18T03:12:54.932Z,0
2017-08-18T03:13:56.745Z,0
2017-08-18T03:14:58.398Z,0
2017-08-18T03:16:00.291Z,0
2017-08-18T03:17:01.964Z,0
2017-08-18T03:18:03.739Z,0
2017-08-18T03:19:05.392Z,0
2017-08-18T03:20:07.223Z,0
2017-08-18T03:21:08.871Z,0
2017-08-18T03:22:10.615Z,0
2017-08-18T03:23:12.266Z,0
2017-08-18T03:24:14.008Z,0
2017-08-18T03:25:15.670Z,0
2017-08-18T03:26:17.503Z,0
2017-08-18T03:27:19.151Z,0
2017-08-18T03:28:21.004Z,0
2017-08-18T03:29:22.657Z,0
2017-08-18T03:30:24.512Z,0
2017-08-18T03:31:26.166Z,0
2017-08-18T03:32:27.989Z,0
2017-08-18T03:33:29.649Z,0
2017-08-18T03:34:31.484Z,0
2017-08-18T03:35:33.142Z,0
2017-08-18T03:36:34.981Z,0
2017-08-18T03:37:36.665Z,0
2017-08-18T03:38:38.369Z,0
2017-08-18T03:39:40.028Z,0
2017-08-18T03:40:41.863Z,0
2017-08-18T03:41:43.519Z,0
2017-08-18T03:42:45.359Z,0
2017-08-18T03:43:47.042Z,0
2017-08-18T03:44:48.856Z,0
2017-08-18T03:45:50.514Z,0
2017-08-18T03:46:52.350Z,0
2017-08-18T03:47:54.033Z,0
2017-08-18T03:48:55.886Z,0
2017-08-18T03:49:57.548Z,0
2017-08-18T03:50:59.351Z,0
2017-08-18T03:52:01.076Z,0
2017-08-18T03:53:02.855Z,0
2017-08-18T03:54:04.506Z,0
2017-08-18T03:55:06.338Z,0
2017-08-18T03:56:08.001Z,0
2017-08-18T03:57:09.849Z,0
2017-08-18T03:58:11.507Z,0
2017-08-18T03:59:13.345Z,0
2017-08-18T04:00:15.009Z,0
2017-08-18T04:01:16.833Z,0
2017-08-18T04:02:18.504Z,0
2017-08-18T04:03:20.320Z,0
2017-08-18T04:04:21.980Z,0
2017-08-18T04:05:23.822Z,0
2017-08-18T04:06:25.473Z,0
2017-08-18T04:07:27.317Z,0
2017-08-18T04:08:29.013Z,0
2017-08-18T04:09:30.803Z,0
2017-08-18T04:10:32.455Z,0
2017-08-18T04:11:34.421Z,0
2017-08-18T04:12:36.070Z,0
2017-08-18T04:13:37.905Z,0
2017-08-18T04:14:39.554Z,0
2017-08-18T04:15:41.444Z,0
2017-08-18T04:16:43.190Z,0
2017-08-18T04:17:44.998Z,0
2017-08-18T04:18:46.674Z,0
2017-08-18T04:19:48.476Z,0
2017-08-18T04:20:50.151Z,0
2017-08-18T04:21:52.035Z,0
2017-08-18T04:22:53.738Z,0
2017-08-18T04:23:55.606Z,0
2017-08-18T04:24:57.268Z,0
2017-08-18T04:25:59.119Z,0
2017-08-18T04:27:00.807Z,0
2017-08-18T04:28:02.586Z,0
2017-08-18T04:29:04.237Z,0
2017-08-18T04:30:06.060Z,0
2017-08-18T04:31:07.755Z,0
2017-08-18T04:32:09.582Z,0
2017-08-18T04:33:11.232Z,0
2017-08-18T04:34:13.106Z,0
2017-08-18T04:35:14.825Z,0
2017-08-18T04:36:16.680Z,0
2017-08-18T04:37:18.349Z,0
2017-08-18T04:38:20.151Z,0
2017-08-18T04:39:21.805Z,0
2017-08-18T04:40:23.633Z,0
2017-08-18T04:41:25.375Z,5
2017-08-18T04:42:27.271Z,5
2017-08-18T04:43:28.925Z,5
2017-08-18T04:44:30.755Z,5
2017-08-18T04:45:32.418Z,5
2017-08-18T04:46:34.249Z,5
2017-08-18T04:47:35.899Z,5
2017-08-18T04:48:37.739Z,5
2017-08-18T04:49:39.420Z,5
2017-08-18T04:50:41.253Z,5
2017-08-18T04:51:42.905Z,5
2017-08-18T04:52:44.775Z,5
2017-08-18T04:53:46.453Z,5
2017-08-18T04:54:48.388Z,5
2017-08-18T04:55:50.138Z,5
2017-08-18T04:56:51.982Z,5
2017-08-18T04:57:53.647Z,5
2017-08-18T04:58:55.524Z,5
2017-08-18T04:59:57.251Z,5
2017-08-18T05:00:59.020Z,5
2017-08-18T05:02:00.680Z,5
2017-08-18T05:03:02.396Z,5
2017-08-18T05:04:04.054Z,5
2017-08-18T05:05:05.786Z,5
2017-08-18T05:06:07.464Z,5
2017-08-18T05:07:09.213Z,5
2017-08-18T05:08:10.879Z,5
2017-08-18T05:09:12.578Z,5
2017-08-18T05:10:14.244Z,5
2017-08-18T05:11:15.970Z,5
2017-08-18T05:12:17.680Z,5
2017-08-18T05:13:19.382Z,5
2017-08-18T05:14:21.089Z,5
2017-08-18T05:15:22.748Z,5
2017-08-18T05:16:24.419Z,5
2017-08-18T05:17:26.143Z,5
2017-08-18T05:18:27.809Z,5
2017-08-18T05:19:29.541Z,5
2017-08-18T05:20:31.216Z,5
2017-08-18T05:21:32.924Z,5
2017-08-18T05:22:34.594Z,5
2017-08-18T05:23:36.339Z,5
2017-08-18T05:24:37.988Z,5
2017-08-18T05:25:39.731Z,5
2017-08-18T05:26:41.380Z,5
2017-08-18T05:27:43.137Z,5
2017-08-18T05:28:44.830Z,5
2017-08-18T05:29:46.598Z,5
2017-08-18T05:30:48.261Z,10
2017-08-18T05:31:50.030Z,10
2017-08-18T05:32:51.679Z,10
2017-08-18T05:33:53.400Z,10
2017-08-18T05:34:55.104Z,15
2017-08-18T05:35:56.919Z,15
2017-08-18T05:36:58.575Z,15
2017-08-18T05:38:00.289Z,15
2017-08-18T05:39:01.936Z,10
2017-08-18T05:40:03.677Z,15
2017-08-18T05:41:05.350Z,15
2017-08-18T05:42:07.069Z,15
2017-08-18T05:43:08.714Z,10
2017-08-18T05:44:10.462Z,10
2017-08-18T05:45:12.114Z,10
2017-08-18T05:46:13.863Z,10
2017-08-18T05:47:15.526Z,10
2017-08-18T05:48:17.243Z,10
2017-08-18T05:49:18.909Z,5
2017-08-18T05:50:20.635Z,5
2017-08-18T05:51:22.283Z,10
2017-08-18T05:52:24.028Z,10
2017-08-18T05:53:25.698Z,10
2017-08-18T05:54:27.420Z,10
2017-08-18T05:55:29.188Z,10
2017-08-18T05:56:30.892Z,10
2017-08-18T05:57:32.547Z,10
2017-08-18T05:58:34.207Z,10
2017-08-18T05:59:35.875Z,10
2017-08-18T06:00:37.537Z,10
2017-08-18T06:01:39.194Z,10
2017-08-18T06:02:40.853Z,10
2017-08-18T06:03:42.539Z,10
2017-08-18T06:04:44.192Z,10
2017-08-18T06:05:45.850Z,10
2017-08-18T06:06:47.584Z,10
2017-08-18T06:07:49.325Z,10
2017-08-18T06:08:50.989Z,10
2017-08-18T06:09:52.741Z,10
2017-08-18T06:10:54.401Z,10
2017-08-18T06:11:56.160Z,10
2017-08-18T06:12:57.840Z,10
2017-08-18T06:13:59.603Z,10
2017-08-18T06:15:01.293Z,10
2017-08-18T06:16:02.955Z,10
2017-08-18T06:17:04.601Z,10
2017-08-18T06:18:06.250Z,10
2017-08-18T06:19:07.902Z,10
2017-08-18T06:20:09.580Z,10
2017-08-18T06:21:11.237Z,10
2017-08-18T06:22:12.932Z,10
2017-08-18T06:23:14.626Z,10
2017-08-18T06:24:16.282Z,10
2017-08-18T06:25:17.967Z,10
2017-08-18T06:26:19.640Z,10
2017-08-18T06:27:21.302Z,15
2017-08-18T06:28:22.991Z,15
2017-08-18T06:29:24.644Z,15
2017-08-18T06:30:26.300Z,15
2017-08-18T06:31:27.964Z,15
2017-08-18T06:32:29.639Z,15
2017-08-18T06:33:31.332Z,15
2017-08-18T06:34:32.997Z,15
2017-08-18T06:35:34.781Z,15
2017-08-18T06:36:36.449Z,20
2017-08-18T06:37:38.104Z,20
2017-08-18T06:38:39.800Z,20
2017-08-18T06:39:41.478Z,20
2017-08-18T06:40:43.169Z,20
2017-08-18T06:41:44.928Z,20
2017-08-18T06:42:46.597Z,15
2017-08-18T06:43:48.310Z,15
2017-08-18T06:44:49.976Z,15
2017-08-18T06:49:42.701Z,0
2017-08-18T06:50:44.303Z,0
2017-08-18T06:52:36.374Z,0
2017-08-18T06:53:37.975Z,0
2017-08-18T06:54:39.580Z,0
2017-08-18T06:55:41.179Z,0
2017-08-18T06:56:42.781Z,0
2017-08-18T06:57:44.383Z,0
2017-08-18T06:58:45.984Z,0
2017-08-18T06:59:47.593Z,0
2017-08-18T07:00:49.199Z,0
2017-08-18T07:01:50.799Z,0
2017-08-18T07:02:52.404Z,0
2017-08-18T07:03:54.010Z,0
2017-08-18T07:04:55.613Z,0
2017-08-18T07:05:57.225Z,0
2017-08-18T07:06:58.821Z,0
2017-08-18T07:08:00.425Z,0
2017-08-18T07:09:02.024Z,0
2017-08-18T07:10:03.632Z,0
2017-08-18T07:12:17.744Z,0
2017-08-18T07:13:19.365Z,0
2017-08-18T07:15:12.388Z,0
2017-08-18T09:37:32.872Z,157.50
2017-08-18T09:38:33.970Z,157.50
2017-08-18T09:40:26.339Z,151.88
2017-08-18T09:41:26.215Z,157.50
2017-08-18T09:43:19.581Z,146.25
2017-08-18T09:44:19.684Z,140.63
2017-08-18T09:45:19.600Z,135.00
2017-08-18T09:46:19.684Z,135.00
2017-08-18T09:47:19.636Z,129.38
2017-08-18T09:48:19.705Z,129.38
2017-08-18T09:49:19.701Z,135.00
2017-08-18T09:50:19.722Z,140.63
2017-08-18T09:51:19.670Z,140.63
2017-08-18T09:52:19.681Z,140.63
2017-08-18T09:53:19.810Z,140.63
2017-08-18T09:54:19.710Z,146.25
2017-08-18T09:55:19.756Z,146.25
2017-08-18T09:56:19.742Z,140.63
2017-08-18T09:57:19.748Z,140.63
2017-08-18T09:58:19.872Z,135.00
2017-08-18T09:59:19.787Z,135.00
2017-08-18T10:00:19.887Z,135.00
2017-08-18T10:01:19.810Z,129.38
2017-08-18T10:02:19.900Z,129.38
2017-08-18T10:03:19.830Z,129.38
2017-08-18T10:04:19.916Z,129.38
2017-08-18T10:05:20.039Z,129.38
2017-08-18T10:06:19.931Z,129.38
2017-08-18T10:07:19.883Z,129.38
2017-08-18T10:08:19.940Z,129.38
2017-08-18T10:09:19.912Z,135.00
2017-08-18T10:10:19.957Z,135.00
2017-08-18T10:11:19.948Z,135.00
2017-08-18T10:12:19.966Z,129.38
2017-08-18T10:13:19.963Z,123.75
2017-08-18T10:14:20.085Z,118.13
2017-08-18T10:15:19.994Z,118.13
2017-08-18T10:16:20.099Z,118.13
2017-08-18T10:17:20.031Z,112.50
2017-08-18T10:18:20.114Z,106.88
2017-08-18T10:19:20.046Z,112.50
2017-08-18T10:20:20.124Z,123.75
2017-08-18T10:21:20.071Z,112.50
2017-08-18T10:22:20.138Z,112.50
2017-08-18T10:23:20.110Z,112.50
2017-08-18T10:24:20.149Z,118.13
2017-08-18T10:25:20.133Z,112.50
2017-08-18T10:26:20.164Z,129.38
2017-08-18T10:27:20.157Z,140.63
2017-08-18T10:28:20.280Z,146.25
2017-08-18T10:29:20.188Z,140.63
2017-08-18T10:30:20.294Z,140.63
2017-08-18T10:31:20.209Z,129.38
2017-08-18T10:32:20.308Z,129.38
2017-08-18T10:33:20.236Z,123.75
2017-08-18T10:34:20.322Z,101.25
2017-08-18T10:35:20.266Z,101.25
2017-08-18T10:36:20.338Z,106.88
2017-08-18T10:37:20.292Z,95.63
2017-08-18T10:38:20.349Z,84.38
2017-08-18T10:39:20.320Z,67.50
2017-08-18T10:40:20.363Z,61.88
2017-08-18T10:41:20.349Z,56.25
2017-08-18T10:42:20.373Z,50.63
2017-08-18T10:43:20.464Z,45.00
2017-08-18T10:44:20.491Z,45.00
2017-08-18T10:45:20.401Z,45.00
2017-08-18T10:46:20.504Z,45.00
2017-08-18T10:47:20.447Z,50.63
2017-08-18T10:48:20.519Z,50.63
2017-08-18T10:49:20.451Z,45.00
2017-08-18T10:50:20.469Z,45.00
2017-08-18T10:51:20.487Z,39.38
2017-08-18T10:52:20.546Z,39.38
2017-08-18T10:53:20.505Z,39.38
2017-08-18T10:54:20.563Z,39.38
2017-08-18T10:55:20.538Z,39.38
2017-08-18T10:56:20.576Z,45.00
2017-08-18T10:57:20.579Z,45.00
2017-08-18T10:58:20.690Z,45.00
2017-08-18T10:59:20.597Z,45.00
2017-08-18T11:00:20.720Z,45.00
2017-08-18T11:01:20.623Z,45.00
2017-08-18T11:02:20.718Z,50.63
2017-08-18T11:03:20.808Z,50.63
2017-08-18T11:04:20.670Z,50.63
2017-08-18T11:05:20.740Z,45.00
2017-08-18T11:06:20.685Z,45.00
2017-08-18T11:07:20.750Z,50.63
2017-08-18T11:08:20.721Z,50.63
2017-08-18T11:09:20.765Z,61.88
2017-08-18T11:10:20.745Z,67.50
2017-08-18T11:11:20.878Z,78.75
2017-08-18T11:12:20.774Z,84.38
2017-08-18T11:13:20.897Z,84.38
2017-08-18T11:14:20.797Z,78.75
2017-08-18T11:15:20.918Z,73.13
2017-08-18T11:16:20.826Z,78.75
2017-08-18T11:17:20.937Z,78.75
2017-08-18T11:18:20.850Z,78.75
2017-08-18T11:19:20.958Z,73.13
2017-08-18T11:20:20.966Z,73.13
2017-08-18T11:21:20.898Z,73.13
2017-08-18T11:22:20.966Z,73.13
2017-08-18T11:23:20.925Z,73.13
2017-08-18T11:24:20.989Z,67.50
2017-08-18T11:25:20.954Z,67.50
2017-08-18T11:26:20.995Z,67.50
2017-08-18T11:27:20.986Z,67.50
2017-08-18T11:28:20.989Z,78.75
2017-08-18T11:29:21.099Z,84.38
2017-08-18T11:30:21.028Z,84.38
2017-08-18T11:31:21.107Z,84.38
2017-08-18T11:32:21.044Z,78.75
2017-08-18T11:33:21.059Z,78.75
2017-08-18T11:34:21.070Z,84.38
2017-08-18T11:35:21.094Z,84.38
2017-08-18T11:36:21.108Z,78.75
2017-08-18T11:37:21.119Z,84.38
2017-08-18T11:38:21.132Z,78.75
2017-08-18T11:39:21.153Z,78.75
2017-08-18T11:40:21.159Z,78.75
2017-08-18T11:41:21.269Z,78.75
2017-08-18T11:42:21.269Z,78.75
2017-08-18T11:43:21.208Z,84.38
2017-08-18T11:44:21.211Z,90.00
2017-08-18T11:45:21.247Z,90.00
2017-08-18T11:46:21.241Z,84.38
2017-08-18T11:47:21.311Z,84.38
2017-08-18T11:48:21.270Z,78.75
2017-08-18T11:49:21.276Z,78.75
2017-08-18T11:50:21.294Z,78.75
2017-08-18T11:51:21.340Z,78.75
2017-08-18T11:52:21.324Z,84.38
2017-08-18T11:53:21.351Z,84.38
2017-08-18T11:54:21.355Z,78.75
2017-08-18T11:55:21.468Z,73.13
2017-08-18T11:56:21.374Z,73.13
2017-08-18T11:57:21.483Z,73.13
2017-08-18T11:58:21.415Z,73.13
2017-08-18T11:59:21.497Z,78.75
2017-08-18T12:00:21.428Z,78.75
2017-08-18T12:01:21.507Z,78.75
2017-08-18T12:02:21.454Z,73.13
2017-08-18T12:03:21.534Z,73.13
2017-08-18T12:04:21.486Z,73.13
2017-08-18T12:05:21.617Z,73.13
2017-08-18T12:06:21.516Z,73.13
2017-08-18T12:07:21.527Z,73.13
2017-08-18T12:08:21.545Z,78.75
2017-08-18T12:09:21.639Z,78.75
2017-08-18T12:10:21.572Z,73.13
2017-08-18T12:11:21.587Z,73.13
2017-08-18T12:12:21.596Z,73.13
2017-08-18T12:13:21.607Z,78.75
2017-08-18T12:14:21.632Z,78.75
2017-08-18T12:15:21.631Z,84.38
2017-08-18T12:16:21.662Z,101.25
2017-08-18T12:17:21.667Z,112.50
2017-08-18T12:18:21.677Z,118.13
2017-08-18T12:19:21.692Z,118.13
2017-08-18T12:20:21.820Z,112.50
2017-08-18T12:21:21.725Z,106.88
2017-08-18T12:22:21.834Z,101.25
2017-08-18T12:23:21.755Z,95.63
2017-08-18T12:24:21.844Z,90.00
2017-08-18T12:25:21.778Z,78.75
2017-08-18T12:26:21.855Z,73.13
2017-08-18T12:27:21.799Z,73.13
2017-08-18T12:28:21.872Z,73.13
2017-08-18T12:29:21.831Z,73.13
2017-08-18T12:30:21.886Z,67.50
2017-08-18T12:31:21.859Z,61.88
2017-08-18T12:32:21.870Z,67.50
2017-08-18T12:33:21.963Z,67.50
2017-08-18T12:34:21.899Z,67.50
2017-08-18T12:35:21.923Z,67.50
2017-08-18T12:36:21.937Z,67.50
2017-08-18T12:37:22.035Z,61.88
2017-08-18T12:38:21.966Z,61.88
2017-08-18T12:39:22.056Z,61.88
2017-08-18T12:40:21.978Z,56.25
2017-08-18T12:41:22.066Z,56.25
2017-08-18T12:42:22.011Z,61.88
2017-08-18T12:43:22.079Z,61.88
2017-08-18T12:44:22.035Z,73.13
2017-08-18T12:45:22.092Z,78.75
2017-08-18T12:46:22.066Z,90.00
2017-08-18T12:47:22.079Z,101.25
2017-08-18T12:48:22.088Z,112.50
2017-08-18T12:49:22.222Z,118.13
2017-08-18T12:50:22.122Z,118.13
2017-08-18T12:51:22.234Z,118.13
2017-08-18T12:52:22.146Z,118.13
2017-08-18T12:53:22.247Z,112.50
2017-08-18T12:54:22.174Z,106.88
2017-08-18T12:55:22.182Z,101.25
2017-08-18T12:56:22.312Z,95.63
2017-08-18T12:57:22.212Z,95.63
2017-08-18T12:58:23.311Z,95.63
2017-08-18T12:59:22.245Z,95.63
2017-08-18T13:00:22.259Z,101.25
2017-08-18T13:01:22.265Z,112.50
2017-08-18T13:02:22.361Z,129.38
2017-08-18T13:03:22.300Z,140.63
2017-08-18T13:04:22.318Z,146.25
2017-08-18T13:05:22.324Z,146.25
2017-08-18T13:06:22.345Z,135.00
2017-08-18T13:07:22.356Z,129.38
2017-08-18T13:08:22.374Z,129.38
2017-08-18T13:09:22.378Z,135.00
2017-08-18T13:10:22.405Z,135.00
2017-08-18T13:11:22.411Z,135.00
2017-08-18T13:12:22.442Z,140.63
2017-08-18T13:13:22.437Z,140.63
2017-08-18T13:14:22.457Z,140.63
2017-08-18T13:15:22.465Z,140.63
2017-08-18T13:16:22.478Z,140.63
2017-08-18T13:17:22.488Z,140.63
2017-08-18T13:18:22.507Z,135.00
2017-08-18T13:19:22.523Z,135.00
2017-08-18T13:20:22.535Z,135.00
2017-08-18T13:21:22.545Z,129.38
2017-08-18T13:22:22.564Z,135.00
2017-08-18T13:23:22.575Z,135.00
2017-08-18T13:24:22.593Z,135.00
2017-08-18T13:25:22.605Z,135.00
2017-08-18T13:26:23.613Z,135.00
2017-08-18T13:27:22.629Z,135.00
2017-08-18T13:28:22.651Z,135.00
2017-08-18T13:29:22.659Z,135.00
2017-08-18T13:30:22.673Z,135.00
2017-08-18T13:31:22.684Z,140.63
2017-08-18T13:32:23.702Z,135.00
2017-08-18T13:33:22.714Z,129.38
2017-08-18T13:34:22.726Z,123.75
2017-08-18T13:35:22.746Z,118.13
2017-08-18T13:36:22.755Z,118.13
2017-08-18T13:37:22.767Z,118.13
2017-08-18T13:38:22.782Z,118.13
2017-08-18T13:39:22.794Z,118.13
2017-08-18T13:40:22.817Z,118.13
2017-08-18T13:41:22.815Z,118.13
2017-08-18T13:42:22.847Z,118.13
2017-08-18T13:43:22.849Z,118.13
2017-08-18T13:44:22.863Z,118.13
2017-08-18T13:45:22.882Z,118.13
2017-08-18T13:46:22.894Z,112.50
2017-08-18T13:47:22.905Z,106.88
2017-08-18T13:48:22.923Z,101.25
2017-08-18T13:49:22.938Z,101.25
2017-08-18T13:50:22.947Z,101.25
2017-08-18T13:51:22.955Z,95.63
2017-08-18T13:52:22.980Z,90.00
2017-08-18T13:53:22.987Z,84.38
2017-08-18T13:54:23.004Z,78.75
2017-08-18T13:55:23.017Z,73.13
2017-08-18T13:56:23.030Z,67.50
2017-08-18T13:57:23.048Z,61.88
2017-08-18T13:58:23.062Z,67.50
2017-08-18T13:59:23.080Z,67.50
2017-08-18T14:00:23.091Z,73.13
2017-08-18T14:01:23.098Z,78.75
2017-08-18T14:02:23.117Z,73.13
2017-08-18T14:03:23.121Z,73.13
2017-08-18T14:04:23.149Z,67.50
2017-08-18T14:05:23.155Z,61.88
2017-08-18T14:06:23.168Z,61.88
2017-08-18T14:07:23.183Z,56.25
2017-08-18T14:08:23.193Z,56.25
2017-08-18T14:09:23.204Z,50.63
2017-08-18T14:10:23.225Z,50.63
2017-08-18T14:11:23.240Z,50.63
2017-08-18T14:12:23.253Z,50.63
2017-08-18T14:13:23.272Z,45.00
2017-08-18T14:14:23.279Z,39.38
2017-08-18T14:15:23.293Z,39.38
2017-08-18T14:16:23.308Z,33.75
2017-08-18T14:17:23.321Z,33.75
2017-08-18T14:18:23.333Z,33.75
2017-08-18T14:19:23.344Z,33.75
2017-08-18T14:20:23.370Z,33.75
2017-08-18T14:21:23.373Z,39.38
2017-08-18T14:22:23.392Z,39.38
2017-08-18T14:23:23.400Z,45.00
2017-08-18T14:24:23.416Z,45.00
2017-08-18T14:25:23.431Z,45.00
2017-08-18T14:26:23.447Z,39.38
2017-08-18T14:27:23.468Z,33.75
2017-08-18T14:28:23.471Z,33.75
2017-08-18T14:29:23.494Z,28.13
2017-08-18T14:30:23.526Z,28.13
2017-08-18T14:31:23.515Z,28.13
2017-08-18T14:32:23.531Z,28.13
2017-08-18T14:33:23.541Z,22.50
2017-08-18T14:34:23.561Z,22.50
2017-08-18T14:35:23.573Z,22.50
2017-08-18T14:36:23.593Z,28.13
2017-08-18T14:37:23.595Z,28.13
2017-08-18T14:38:23.610Z,28.13
2017-08-18T14:39:23.625Z,28.13
2017-08-18T14:40:23.636Z,33.75
2017-08-18T14:41:23.651Z,33.75
2017-08-18T14:42:23.668Z,33.75
2017-08-18T14:43:23.679Z,39.38
2017-08-18T14:44:23.695Z,39.38
2017-08-18T14:45:23.708Z,39.38
2017-08-18T14:46:23.726Z,45.00
2017-08-18T14:47:23.735Z,39.38
2017-08-18T14:48:23.751Z,39.38
2017-08-18T14:49:23.758Z,39.38
2017-08-18T14:50:23.777Z,39.38
2017-08-18T14:51:23.789Z,39.38
2017-08-18T14:52:23.809Z,39.38
2017-08-18T14:53:23.817Z,39.38
2017-08-18T14:54:23.838Z,39.38
2017-08-18T14:55:23.845Z,39.38
2017-08-18T14:56:23.864Z,39.38
2017-08-18T14:57:23.871Z,39.38
2017-08-18T14:58:23.977Z,39.38
2017-08-18T14:59:23.904Z,39.38
2017-08-18T15:00:23.917Z,33.75
2017-08-18T15:01:23.926Z,33.75
2017-08-18T15:02:23.947Z,33.75
2017-08-18T15:03:23.954Z,33.75
2017-08-18T15:04:23.973Z,28.13
2017-08-18T15:05:23.995Z,28.13
2017-08-18T15:06:24.001Z,28.13
2017-08-18T15:07:24.009Z,28.13
2017-08-18T15:08:24.026Z,28.13
2017-08-18T15:09:24.033Z,28.13
2017-08-18T15:10:24.044Z,28.13
2017-08-18T15:11:24.060Z,28.13
2017-08-18T15:12:24.151Z,28.13
2017-08-18T15:13:24.099Z,28.13
2017-08-18T15:14:24.166Z,28.13
2017-08-18T15:15:24.122Z,28.13
2017-08-18T15:16:24.180Z,28.13
2017-08-18T15:17:24.182Z,28.13
2017-08-18T15:18:24.195Z,28.13
2017-08-18T15:19:24.181Z,28.13
2017-08-18T15:20:25.232Z,28.13
2017-08-18T15:21:24.205Z,28.13
2017-08-18T15:22:24.318Z,28.13
2017-08-18T15:23:24.229Z,28.13
2017-08-18T15:24:24.339Z,28.13
2017-08-18T15:25:24.265Z,33.75
2017-08-18T15:26:24.359Z,33.75
2017-08-18T15:27:24.297Z,33.75
2017-08-18T15:28:24.297Z,28.13
2017-08-18T15:29:24.369Z,22.50
2017-08-18T15:30:24.331Z,16.88
2017-08-18T15:31:24.381Z,11.25
2017-08-18T15:32:24.351Z,5.63
2017-08-18T15:33:24.395Z,0.00
2017-08-18T15:34:24.381Z,0.00
2017-08-18T15:35:24.409Z,0.00
2017-08-18T15:36:24.419Z,0.00
2017-08-18T15:37:24.530Z,0.00
2017-08-18T15:38:24.436Z,0.00
2017-08-18T15:39:24.538Z,0.00
2017-08-18T15:40:24.460Z,5.63
2017-08-18T15:41:24.554Z,5.63
2017-08-18T15:42:24.489Z,5.63
2017-08-18T15:43:24.516Z,5.63
2017-08-18T15:44:24.521Z,5.63
2017-08-18T15:45:24.588Z,5.63
2017-08-18T15:46:24.548Z,5.63
2017-08-18T15:47:24.601Z,5.63
2017-08-18T15:48:24.581Z,5.63
2017-08-18T15:49:24.609Z,0.00
2017-08-18T15:50:24.601Z,0.00
2017-08-18T15:51:24.723Z,0.00
2017-08-18T15:52:24.632Z,0.00
2017-08-18T15:53:24.738Z,0.00
2017-08-18T15:54:24.659Z,0.00
2017-08-18T15:55:24.749Z,5.63
2017-08-18T15:56:24.684Z,5.63
2017-08-18T15:57:24.764Z,5.63
2017-08-18T15:58:24.713Z,5.63
2017-08-18T15:59:24.775Z,5.63
2017-08-18T16:00:24.743Z,5.63
2017-08-18T16:01:24.753Z,5.63
2017-08-18T16:02:24.777Z,11.25
2017-08-18T16:03:24.865Z,11.25
2017-08-18T16:04:24.814Z,11.25
2017-08-18T16:05:24.816Z,11.25
2017-08-18T16:06:24.928Z,11.25
2017-08-18T16:07:24.835Z,11.25
2017-08-18T16:08:24.943Z,11.25
2017-08-18T16:09:24.864Z,11.25
2017-08-18T16:10:24.874Z,11.25
2017-08-18T16:11:24.894Z,11.25
2017-08-18T16:12:24.970Z,11.25
2017-08-18T16:13:24.916Z,11.25
2017-08-18T16:14:24.978Z,11.25
2017-08-18T16:15:24.943Z,11.25
2017-08-18T16:16:25.002Z,11.25
2017-08-18T16:17:24.981Z,11.25
2017-08-18T16:18:25.013Z,11.25
2017-08-18T16:19:24.999Z,16.88
2017-08-18T16:20:25.126Z,16.88
2017-08-18T16:21:25.024Z,22.50
2017-08-18T16:22:25.133Z,22.50
2017-08-18T16:23:25.062Z,22.50